Time;durP1;ratioP1;P1;durP2;ratioP2;P2;SDS_P1;SDS_P2;PMS_P1;PMS_P2;Temp;Humidity;BMP_temperature;BMP_pressure;BME280_temperature;BME280_humidity;BME280_pressure;Samples;Min_cycle;Max_cycle;Signal;HPM_P1;HPM_P2
2022/03/17 00:02:07;;;;;;;30.50;17.83;;;;;;;;;;5014316;28;20030;-77
2022/03/17 00:04:33;;;;;;;30.05;17.15;;;;;;;;;;5014734;28;20104;-77
2022/03/17 00:06:59;;;;;;;29.50;16.58;;;;;;;;;;5014424;28;20022;-77
2022/03/17 00:09:24;;;;;;;29.60;17.02;;;;;;;;;;4997003;28;20026;-77
2022/03/17 00:11:50;;;;;;;30.80;17.27;;;;;;;;;;5014365;28;20018;-77
2022/03/17 00:14:15;;;;;;;34.88;17.58;;;;;;;;;;5014272;28;20079;-78
2022/03/17 00:16:41;;;;;;;28.70;16.75;;;;;;;;;;5014244;28;20037;-77
2022/03/17 00:19:08;;;;;;;29.17;15.85;;;;;;;;;;5013928;28;20030;-77
2022/03/17 00:21:37;;;;;;;30.92;15.95;;;;;;;;;;5015143;28;20486;-77
2022/03/17 00:24:07;;;;;;;29.40;15.57;;;;;;;;;;5014959;28;20021;-76
2022/03/17 00:26:32;;;;;;;29.58;15.50;;;;;;;;;;5014443;28;20075;-76
2022/03/17 00:28:58;;;;;;;29.02;15.73;;;;;;;;;;5018358;28;20029;-77
2022/03/17 00:31:23;;;;;;;27.02;16.48;;;;;;;;;;5020799;28;20033;-77
2022/03/17 00:33:48;;;;;;;31.98;17.10;;;;;;;;;;5013830;28;20022;-77
2022/03/17 00:36:13;;;;;;;28.27;16.95;;;;;;;;;;5013952;28;20021;-77
2022/03/17 00:38:39;;;;;;;29.88;16.23;;;;;;;;;;5014278;28;20128;-77
2022/03/17 00:41:04;;;;;;;27.15;15.38;;;;;;;;;;5013465;28;20021;-77
2022/03/17 00:43:29;;;;;;;32.08;16.98;;;;;;;;;;5013965;28;20101;-77
2022/03/17 00:45:54;;;;;;;29.70;16.80;;;;;;;;;;5013806;28;20033;-77
2022/03/17 00:48:20;;;;;;;30.45;17.33;;;;;;;;;;5013489;28;20474;-77
2022/03/17 00:50:45;;;;;;;31.27;17.65;;;;;;;;;;5013521;28;20025;-77
2022/03/17 00:53:10;;;;;;;28.08;16.42;;;;;;;;;;5013365;28;20022;-77
2022/03/17 00:55:36;;;;;;;32.50;17.25;;;;;;;;;;5012710;28;20033;-77
2022/03/17 00:58:01;;;;;;;32.50;17.98;;;;;;;;;;5013462;28;20033;-77
2022/03/17 01:00:26;;;;;;;32.78;17.92;;;;;;;;;;4995625;28;20387;-77
2022/03/17 01:02:54;;;;;;;29.02;16.15;;;;;;;;;;5012968;28;20100;-77
2022/03/17 01:05:20;;;;;;;30.63;16.65;;;;;;;;;;5013176;28;20030;-77
2022/03/17 01:07:46;;;;;;;30.50;16.65;;;;;;;;;;5013410;28;20029;-77
2022/03/17 01:10:18;;;;;;;30.75;17.65;;;;;;;;;;5013108;28;20372;-77
2022/03/17 01:12:46;;;;;;;31.70;17.05;;;;;;;;;;5013121;28;20029;-77
2022/03/17 01:15:12;;;;;;;32.42;16.15;;;;;;;;;;5013338;28;20437;-77
2022/03/17 01:17:37;;;;;;;29.15;16.30;;;;;;;;;;5013256;28;20135;-77
2022/03/17 01:20:05;;;;;;;35.45;18.30;;;;;;;;;;5013273;28;20084;-77
2022/03/17 01:22:30;;;;;;;30.73;17.33;;;;;;;;;;5013866;28;20041;-77
2022/03/17 01:24:55;;;;;;;32.80;18.50;;;;;;;;;;5013169;28;20034;-77
2022/03/17 01:27:23;;;;;;;32.80;17.23;;;;;;;;;;5014304;28;20082;-76
2022/03/17 01:29:48;;;;;;;33.25;17.63;;;;;;;;;;4995578;28;20076;-76
2022/03/17 01:32:14;;;;;;;31.63;16.70;;;;;;;;;;5013600;28;20030;-76
2022/03/17 01:34:39;;;;;;;27.38;15.45;;;;;;;;;;5013251;28;20060;-77
2022/03/17 01:37:05;;;;;;;28.30;17.10;;;;;;;;;;5013090;28;20076;-76
2022/03/17 01:39:30;;;;;;;32.10;16.55;;;;;;;;;;5012969;28;20114;-76
2022/03/17 01:42:02;;;;;;;28.52;16.90;;;;;;;;;;5012765;28;20403;-77
2022/03/17 01:44:27;;;;;;;33.30;18.08;;;;;;;;;;5013147;28;20072;-76
2022/03/17 01:49:37;;;;;;;33.67;17.52;;;;;;;;;;5012797;28;20025;-76
2022/03/17 01:52:03;;;;;;;33.38;18.77;;;;;;;;;;5012942;28;20025;-77
2022/03/17 01:54:28;;;;;;;31.77;17.83;;;;;;;;;;5012909;28;20123;-77
2022/03/17 01:56:54;;;;;;;31.23;18.17;;;;;;;;;;5012807;28;20026;-77
2022/03/17 01:59:21;;;;;;;32.10;18.58;;;;;;;;;;5012736;28;20105;-77
2022/03/17 02:01:47;;;;;;;30.50;16.98;;;;;;;;;;5012682;28;20390;-77
2022/03/17 02:04:13;;;;;;;31.83;17.48;;;;;;;;;;5013243;28;20022;-77
2022/03/17 02:06:38;;;;;;;30.33;17.40;;;;;;;;;;5013758;28;20167;-77
2022/03/17 02:09:03;;;;;;;30.63;17.23;;;;;;;;;;5016207;28;20021;-76
2022/03/17 02:14:23;;;;;;;30.05;15.77;;;;;;;;;;5016283;28;20029;-77
2022/03/17 02:16:50;;;;;;;29.83;16.02;;;;;;;;;;4998349;28;20026;-77
2022/03/17 02:19:15;;;;;;;34.45;18.00;;;;;;;;;;5016217;28;20037;-76
2022/03/17 02:21:41;;;;;;;32.60;17.52;;;;;;;;;;5015832;28;20030;-76
2022/03/17 02:26:50;;;;;;;31.75;16.55;;;;;;;;;;5017573;28;20079;-77
2022/03/17 02:29:15;;;;;;;30.13;16.42;;;;;;;;;;5018558;28;20076;-77
2022/03/17 02:31:41;;;;;;;32.40;16.80;;;;;;;;;;5017131;28;20050;-74
2022/03/17 02:34:06;;;;;;;31.80;17.95;;;;;;;;;;5016064;28;20033;-77
2022/03/17 02:36:32;;;;;;;31.27;17.08;;;;;;;;;;5015670;28;20109;-76
2022/03/17 02:38:57;;;;;;;36.25;18.95;;;;;;;;;;4998139;28;20091;-77
2022/03/17 02:41:23;;;;;;;29.60;17.80;;;;;;;;;;4998235;28;20053;-76
2022/03/17 02:43:54;;;;;;;34.63;18.73;;;;;;;;;;5015607;28;20050;-77
2022/03/17 02:46:21;;;;;;;33.70;18.10;;;;;;;;;;5015650;28;20034;-76
2022/03/17 02:48:46;;;;;;;31.60;17.70;;;;;;;;;;5016079;28;20041;-77
2022/03/17 02:51:12;;;;;;;31.83;16.17;;;;;;;;;;4997705;28;20021;-76
2022/03/17 02:53:37;;;;;;;35.22;18.13;;;;;;;;;;5016460;28;20026;-78
2022/03/17 02:56:03;;;;;;;35.15;18.67;;;;;;;;;;5015490;28;20387;-76
2022/03/17 02:58:31;;;;;;;31.52;17.92;;;;;;;;;;5015738;28;20048;-77
2022/03/17 03:00:57;;;;;;;32.97;18.20;;;;;;;;;;5015100;28;20026;-76
2022/03/17 03:03:22;;;;;;;31.75;17.75;;;;;;;;;;5014924;28;20148;-76
2022/03/17 03:05:47;;;;;;;32.65;18.73;;;;;;;;;;5016473;28;20104;-77
2022/03/17 03:08:13;;;;;;;30.65;17.63;;;;;;;;;;5017082;28;20092;-77
2022/03/17 03:10:39;;;;;;;32.85;18.48;;;;;;;;;;4999553;28;20038;-77
2022/03/17 03:13:04;;;;;;;35.70;19.60;;;;;;;;;;5015109;28;20104;-77
2022/03/17 03:15:29;;;;;;;37.33;19.20;;;;;;;;;;4997220;28;20025;-77
2022/03/17 03:17:55;;;;;;;35.03;19.55;;;;;;;;;;5013993;28;20092;-77
2022/03/17 03:20:21;;;;;;;37.08;19.42;;;;;;;;;;5015091;28;20029;-77
2022/03/17 03:22:46;;;;;;;39.35;18.85;;;;;;;;;;5014796;28;20029;-76
2022/03/17 03:25:12;;;;;;;36.05;19.13;;;;;;;;;;5014588;28;20057;-76
2022/03/17 03:27:39;;;;;;;31.38;17.92;;;;;;;;;;5015154;28;20152;-76
2022/03/17 03:30:05;;;;;;;34.55;19.10;;;;;;;;;;5014818;28;20029;-77
2022/03/17 03:32:31;;;;;;;35.47;19.63;;;;;;;;;;5014746;28;20026;-76
2022/03/17 03:34:56;;;;;;;34.28;18.40;;;;;;;;;;4996833;28;20030;-76
2022/03/17 03:37:24;;;;;;;36.17;19.42;;;;;;;;;;5014545;28;20479;-77
2022/03/17 03:39:54;;;;;;;37.95;19.08;;;;;;;;;;5015657;28;20049;-77
2022/03/17 03:42:20;;;;;;;33.30;18.73;;;;;;;;;;5017117;28;20033;-77
2022/03/17 03:44:45;;;;;;;33.42;18.80;;;;;;;;;;5016098;28;20026;-77
2022/03/17 03:47:11;;;;;;;34.60;18.42;;;;;;;;;;5015819;28;20061;-76
2022/03/17 03:49:39;;;;;;;36.58;19.52;;;;;;;;;;5014259;28;20112;-77
2022/03/17 03:52:07;;;;;;;34.92;19.13;;;;;;;;;;4996718;28;20041;-77
2022/03/17 03:54:32;;;;;;;39.90;20.73;;;;;;;;;;5014429;28;20443;-77
2022/03/17 03:56:57;;;;;;;41.10;21.80;;;;;;;;;;5013958;28;20049;-77
2022/03/17 03:59:25;;;;;;;39.75;21.73;;;;;;;;;;5014275;28;20032;-76
2022/03/17 04:01:58;;;;;;;45.10;22.20;;;;;;;;;;4996164;28;20025;-76
2022/03/17 04:04:24;;;;;;;40.55;22.95;;;;;;;;;;5014461;28;20463;-77
2022/03/17 04:06:51;;;;;;;40.15;23.02;;;;;;;;;;5014169;28;20034;-77
2022/03/17 04:09:19;;;;;;;41.47;22.33;;;;;;;;;;5014013;28;20037;-76
2022/03/17 04:11:46;;;;;;;40.95;22.17;;;;;;;;;;5014481;28;20022;-76
2022/03/17 04:14:12;;;;;;;42.63;23.17;;;;;;;;;;4996433;28;20434;-76
2022/03/17 04:16:38;;;;;;;41.78;22.52;;;;;;;;;;5014068;28;20026;-77
2022/03/17 04:19:05;;;;;;;39.97;22.25;;;;;;;;;;5013950;28;20052;-76
2022/03/17 04:21:31;;;;;;;44.35;22.83;;;;;;;;;;4996173;28;20037;-77
2022/03/17 04:23:57;;;;;;;40.22;23.08;;;;;;;;;;5014294;28;20025;-77
2022/03/17 04:26:22;;;;;;;40.92;23.10;;;;;;;;;;5014100;28;20033;-77
2022/03/17 04:28:47;;;;;;;41.80;22.63;;;;;;;;;;5013595;28;20037;-77
2022/03/17 04:31:13;;;;;;;40.05;22.10;;;;;;;;;;5013464;28;20108;-77
2022/03/17 04:33:38;;;;;;;46.17;21.95;;;;;;;;;;4996371;28;20018;-76
2022/03/17 04:36:04;;;;;;;44.10;22.00;;;;;;;;;;5013830;28;20030;-77
2022/03/17 04:38:30;;;;;;;44.45;23.15;;;;;;;;;;4997763;28;20022;-76
2022/03/17 04:40:55;;;;;;;40.15;22.77;;;;;;;;;;5013589;28;20372;-77
2022/03/17 04:43:20;;;;;;;45.25;23.55;;;;;;;;;;5013633;28;20026;-77
2022/03/17 04:45:46;;;;;;;52.38;24.15;;;;;;;;;;5013630;28;20061;-77
2022/03/17 04:48:12;;;;;;;45.15;24.30;;;;;;;;;;5013695;28;20439;-78
2022/03/17 04:50:38;;;;;;;42.13;23.50;;;;;;;;;;5013771;28;20471;-76
2022/03/17 04:55:48;;;;;;;;;;;;;;;;;;5014974;28;20029;-76
2022/03/17 04:58:13;;;;;;;42.92;22.92;;;;;;;;;;4995761;28;19909;-76
2022/03/17 05:00:40;;;;;;;40.65;22.42;;;;;;;;;;5013854;28;20030;-76
2022/03/17 05:03:05;;;;;;;41.63;21.48;;;;;;;;;;4995444;28;20426;-76
2022/03/17 05:05:30;;;;;;;40.65;22.80;;;;;;;;;;5013883;28;20044;-76
2022/03/17 05:07:57;;;;;;;42.97;22.83;;;;;;;;;;4995982;28;20113;-77
2022/03/17 05:10:23;;;;;;;46.35;23.92;;;;;;;;;;5013681;28;20364;-77
2022/03/17 05:12:48;;;;;;;39.90;23.33;;;;;;;;;;5013165;28;20029;-77
2022/03/17 05:15:13;;;;;;;40.08;21.00;;;;;;;;;;5013341;28;20057;-77
2022/03/17 05:17:40;;;;;;;41.15;23.38;;;;;;;;;;5013302;28;20017;-77
2022/03/17 05:20:09;;;;;;;41.60;23.63;;;;;;;;;;4995655;28;20028;-77
2022/03/17 05:22:34;;;;;;;44.75;25.00;;;;;;;;;;5013253;28;20380;-76
2022/03/17 05:24:59;;;;;;;43.85;24.20;;;;;;;;;;5013543;28;20033;-76
2022/03/17 05:27:25;;;;;;;47.42;24.65;;;;;;;;;;4995458;28;20121;-76
2022/03/17 05:29:50;;;;;;;44.25;25.00;;;;;;;;;;5013164;28;20058;-76
2022/03/17 05:32:15;;;;;;;48.40;25.27;;;;;;;;;;5013592;28;20484;-77
2022/03/17 05:34:40;;;;;;;39.85;22.40;;;;;;;;;;5013121;28;20537;-77
2022/03/17 05:37:06;;;;;;;43.42;24.85;;;;;;;;;;5013529;28;20499;-77
2022/03/17 05:39:32;;;;;;;44.90;24.85;;;;;;;;;;5012832;28;20053;-77
2022/03/17 05:41:57;;;;;;;44.25;24.05;;;;;;;;;;5014834;28;20025;-76
2022/03/17 05:44:22;;;;;;;44.20;24.20;;;;;;;;;;5016887;28;20037;-76
2022/03/17 05:46:47;;;;;;;46.03;24.13;;;;;;;;;;4999216;28;20271;-76
2022/03/17 05:49:13;;;;;;;43.22;24.58;;;;;;;;;;5017115;28;20105;-77
2022/03/17 05:51:38;;;;;;;45.28;23.73;;;;;;;;;;5016582;28;20030;-77
2022/03/17 05:54:03;;;;;;;40.25;23.83;;;;;;;;;;4999760;28;20578;-77
2022/03/17 05:56:29;;;;;;;41.28;23.48;;;;;;;;;;4999150;28;20026;-76
2022/03/17 05:58:54;;;;;;;44.50;24.88;;;;;;;;;;5017260;28;20117;-77
2022/03/17 06:01:19;;;;;;;43.75;23.58;;;;;;;;;;5016435;28;20113;-77
2022/03/17 06:03:44;;;;;;;42.40;23.10;;;;;;;;;;5016179;28;20060;-77
2022/03/17 06:06:09;;;;;;;45.00;23.15;;;;;;;;;;4999609;28;20483;-77
2022/03/17 06:08:35;;;;;;;49.97;24.58;;;;;;;;;;5017349;28;20087;-77
2022/03/17 06:11:00;;;;;;;45.35;24.02;;;;;;;;;;5016518;28;20029;-77
2022/03/17 06:13:25;;;;;;;41.60;23.35;;;;;;;;;;5017283;28;20113;-77
2022/03/17 06:15:50;;;;;;;45.78;24.17;;;;;;;;;;5016370;28;20061;-76
2022/03/17 06:18:15;;;;;;;44.40;25.05;;;;;;;;;;5016283;28;20028;-77
2022/03/17 06:20:41;;;;;;;44.85;25.27;;;;;;;;;;5017015;28;20018;-77
2022/03/17 06:23:07;;;;;;;42.65;23.83;;;;;;;;;;5018041;28;20029;-77
2022/03/17 06:25:35;;;;;;;46.88;24.58;;;;;;;;;;5016022;28;20390;-77
2022/03/17 06:28:00;;;;;;;42.92;24.90;;;;;;;;;;5016256;28;20022;-76
2022/03/17 06:30:27;;;;;;;49.58;24.20;;;;;;;;;;4999046;28;20028;-78
2022/03/17 06:32:54;;;;;;;42.65;22.00;;;;;;;;;;4999267;28;20045;-77
2022/03/17 06:35:21;;;;;;;41.25;23.50;;;;;;;;;;5017176;28;20033;-77
2022/03/17 06:37:49;;;;;;;41.15;22.27;;;;;;;;;;5016488;28;20502;-77
2022/03/17 06:40:17;;;;;;;38.25;21.30;;;;;;;;;;5017372;28;20034;-77
2022/03/17 06:42:43;;;;;;;40.03;22.95;;;;;;;;;;4997966;28;20060;-77
2022/03/17 06:45:10;;;;;;;43.05;24.90;;;;;;;;;;5015607;28;20068;-78
2022/03/17 06:47:35;;;;;;;44.92;25.42;;;;;;;;;;5018086;28;20029;-77
2022/03/17 06:50:00;;;;;;;42.60;23.55;;;;;;;;;;5016898;28;20048;-78
2022/03/17 06:52:26;;;;;;;44.53;24.70;;;;;;;;;;5015510;28;20034;-77
2022/03/17 06:54:51;;;;;;;50.63;24.70;;;;;;;;;;5017773;28;20104;-77
2022/03/17 06:57:21;;;;;;;40.67;23.60;;;;;;;;;;5015346;28;20034;-76
2022/03/17 06:59:48;;;;;;;43.95;24.10;;;;;;;;;;5015233;28;20089;-76
2022/03/17 07:02:13;;;;;;;45.30;22.33;;;;;;;;;;4998002;28;20037;-76
2022/03/17 07:04:39;;;;;;;44.72;23.73;;;;;;;;;;4998191;28;20025;-77
2022/03/17 07:07:04;;;;;;;41.15;23.95;;;;;;;;;;5015962;28;20062;-77
2022/03/17 07:09:30;;;;;;;43.70;24.75;;;;;;;;;;5015600;28;20029;-77
2022/03/17 07:11:55;;;;;;;42.80;24.20;;;;;;;;;;4997886;28;20487;-76
2022/03/17 07:14:20;;;;;;;42.28;24.23;;;;;;;;;;5014995;28;20768;-77
2022/03/17 07:16:45;;;;;;;46.75;25.10;;;;;;;;;;4997739;28;20487;-77
2022/03/17 07:19:11;;;;;;;40.60;23.75;;;;;;;;;;5015483;28;20430;-77
2022/03/17 07:21:36;;;;;;;42.97;23.83;;;;;;;;;;5015339;28;20091;-77
2022/03/17 07:24:01;;;;;;;40.30;23.70;;;;;;;;;;4997843;28;20155;-77
2022/03/17 07:26:27;;;;;;;43.45;24.63;;;;;;;;;;4997493;28;20372;-77
2022/03/17 07:28:54;;;;;;;43.17;24.42;;;;;;;;;;5015557;28;20022;-77
2022/03/17 07:31:20;;;;;;;38.17;20.35;;;;;;;;;;5015744;28;20026;-76
2022/03/17 07:33:45;;;;;;;43.35;23.50;;;;;;;;;;5016330;28;20033;-78
2022/03/17 07:36:10;;;;;;;39.08;23.30;;;;;;;;;;5001251;28;20030;-77
2022/03/17 07:38:36;;;;;;;46.60;24.83;;;;;;;;;;5017777;28;20179;-77
2022/03/17 07:41:01;;;;;;;40.10;22.23;;;;;;;;;;5019312;28;20026;-78
2022/03/17 07:43:26;;;;;;;37.47;21.15;;;;;;;;;;5020713;28;20098;-78
2022/03/17 07:45:53;;;;;;;37.78;22.00;;;;;;;;;;5019405;28;20067;-77
2022/03/17 07:48:19;;;;;;;41.78;23.98;;;;;;;;;;5018731;28;20022;-78
2022/03/17 07:50:44;;;;;;;39.17;22.42;;;;;;;;;;5019950;28;20022;-77
2022/03/17 07:53:10;;;;;;;41.10;22.63;;;;;;;;;;5000882;28;20474;-77
2022/03/17 07:55:35;;;;;;;41.50;23.60;;;;;;;;;;5017571;28;20026;-77
2022/03/17 07:58:01;;;;;;;37.65;21.90;;;;;;;;;;5017891;28;20267;-78
2022/03/17 08:00:26;;;;;;;39.10;20.90;;;;;;;;;;5019851;28;20037;-78
2022/03/17 08:02:52;;;;;;;28.80;17.20;;;;;;;;;;5021218;28;20044;-78
2022/03/17 08:05:17;;;;;;;42.88;21.25;;;;;;;;;;5019685;28;20048;-78
2022/03/17 08:07:42;;;;;;;37.10;21.55;;;;;;;;;;5021669;28;20029;-78
2022/03/17 08:10:09;;;;;;;39.40;22.73;;;;;;;;;;5022430;28;20411;-78
2022/03/17 08:12:35;;;;;;;39.33;21.70;;;;;;;;;;5001582;28;20026;-78
2022/03/17 08:15:01;;;;;;;39.25;21.80;;;;;;;;;;5022593;28;20022;-78
2022/03/17 08:17:27;;;;;;;42.20;23.50;;;;;;;;;;5002425;28;20053;-78
2022/03/17 08:19:53;;;;;;;44.58;23.38;;;;;;;;;;5020762;28;20026;-78
2022/03/17 08:22:18;;;;;;;41.33;24.45;;;;;;;;;;5003475;28;20025;-78
2022/03/17 08:24:43;;;;;;;38.55;23.08;;;;;;;;;;5017740;28;20026;-78
2022/03/17 08:27:09;;;;;;;40.57;23.40;;;;;;;;;;5014286;28;20025;-77
2022/03/17 08:29:34;;;;;;;39.57;23.00;;;;;;;;;;5014163;28;20258;-77
2022/03/17 08:32:00;;;;;;;40.75;23.48;;;;;;;;;;5013678;28;20251;-77
2022/03/17 08:34:26;;;;;;;39.78;21.05;;;;;;;;;;5013786;28;20022;-76
2022/03/17 08:36:54;;;;;;;40.13;24.05;;;;;;;;;;5013674;28;20103;-77
2022/03/17 08:39:20;;;;;;;41.90;23.60;;;;;;;;;;5013289;28;20025;-77
2022/03/17 08:41:45;;;;;;;36.95;22.83;;;;;;;;;;5013271;28;20023;-77
2022/03/17 08:44:10;;;;;;;39.07;21.30;;;;;;;;;;5013239;28;20026;-76
2022/03/17 08:49:20;;;;;;;48.03;22.75;;;;;;;;;;5013708;28;20052;-77
2022/03/17 08:51:59;;;;;;;47.75;24.60;;;;;;;;;;4995778;28;20029;-77
2022/03/17 08:54:27;;;;;;;41.95;22.52;;;;;;;;;;4995500;28;20026;-77
2022/03/17 08:56:59;;;;;;;39.25;23.52;;;;;;;;;;5013514;28;20535;-77
2022/03/17 08:59:30;;;;;;;35.88;20.90;;;;;;;;;;4996702;28;20129;-77
2022/03/17 09:01:56;;;;;;;40.92;23.05;;;;;;;;;;5013552;28;20510;-76
2022/03/17 09:04:21;;;;;;;40.67;23.88;;;;;;;;;;5013656;28;20018;-76
2022/03/17 09:06:46;;;;;;;38.37;22.80;;;;;;;;;;4995963;28;20037;-77
2022/03/17 09:09:12;;;;;;;40.30;23.03;;;;;;;;;;5014133;28;20248;-77
2022/03/17 09:11:38;;;;;;;40.90;20.77;;;;;;;;;;4995959;28;20278;-76
2022/03/17 09:14:04;;;;;;;41.28;23.27;;;;;;;;;;5014272;28;20053;-76
2022/03/17 09:16:29;;;;;;;38.20;22.52;;;;;;;;;;5014936;28;20026;-77
2022/03/17 09:18:55;;;;;;;39.45;21.88;;;;;;;;;;5018118;28;20057;-78
2022/03/17 09:21:20;;;;;;;47.20;24.27;;;;;;;;;;5018123;28;20511;-77
2022/03/17 09:23:46;;;;;;;42.55;23.92;;;;;;;;;;5022937;28;20113;-78
2022/03/17 09:26:11;;;;;;;37.75;22.45;;;;;;;;;;5020504;28;20430;-78
2022/03/17 09:28:36;;;;;;;41.00;22.75;;;;;;;;;;5019119;28;20038;-78
2022/03/17 09:31:01;;;;;;;37.08;22.83;;;;;;;;;;5021512;28;20025;-78
2022/03/17 09:33:27;;;;;;;38.60;22.08;;;;;;;;;;5018089;28;20026;-78
2022/03/17 09:35:53;;;;;;;44.75;23.05;;;;;;;;;;5017755;28;20551;-78
2022/03/17 09:38:18;;;;;;;34.47;19.05;;;;;;;;;;4999800;28;20034;-77
2022/03/17 09:40:44;;;;;;;44.00;21.55;;;;;;;;;;5000101;28;20394;-77
2022/03/17 09:43:18;;;;;;;36.00;22.58;;;;;;;;;;5017713;28;20025;-77
2022/03/17 09:45:45;;;;;;;39.05;22.25;;;;;;;;;;5017336;28;20021;-77
2022/03/17 09:48:13;;;;;;;28.67;18.23;;;;;;;;;;5017920;28;20025;-78
2022/03/17 09:50:39;;;;;;;46.00;23.63;;;;;;;;;;5017249;28;20478;-78
2022/03/17 09:53:06;;;;;;;39.17;22.55;;;;;;;;;;5016955;28;20544;-78
2022/03/17 09:55:33;;;;;;;39.80;22.52;;;;;;;;;;5017248;28;20065;-77
2022/03/17 09:57:58;;;;;;;38.90;23.00;;;;;;;;;;5020310;28;20026;-79
2022/03/17 10:00:47;;;;;;;38.95;22.60;;;;;;;;;;5003562;28;20044;-76
2022/03/17 10:03:09;;;;;;;39.65;21.88;;;;;;;;;;5016707;28;20057;-77
2022/03/17 10:05:34;;;;;;;27.70;17.17;;;;;;;;;;5017340;28;20399;-77
2022/03/17 10:07:59;;;;;;;35.70;19.10;;;;;;;;;;5017386;28;20030;-76
2022/03/17 10:10:36;;;;;;;37.87;21.73;;;;;;;;;;4999597;28;20064;-77
2022/03/17 10:13:06;;;;;;;38.47;20.13;;;;;;;;;;5016636;28;20294;-78
2022/03/17 10:15:31;;;;;;;37.83;20.98;;;;;;;;;;5017101;28;20112;-77
2022/03/17 10:17:57;;;;;;;35.30;20.40;;;;;;;;;;5016989;28;20113;-77
2022/03/17 10:20:27;;;;;;;32.50;20.63;;;;;;;;;;5016916;28;20022;-77
2022/03/17 10:22:58;;;;;;;40.53;20.73;;;;;;;;;;4999526;28;20441;-77
2022/03/17 10:25:26;;;;;;;32.97;21.02;;;;;;;;;;5017291;28;20395;-77
2022/03/17 10:27:54;;;;;;;37.85;21.38;;;;;;;;;;5017555;28;20026;-78
2022/03/17 10:30:33;;;;;;;34.15;20.23;;;;;;;;;;5017320;28;20484;-78
2022/03/17 10:33:03;;;;;;;32.60;18.77;;;;;;;;;;5017937;28;20483;-78
2022/03/17 10:35:36;;;;;;;35.80;20.85;;;;;;;;;;5017265;28;20025;-77
2022/03/17 10:38:15;;;;;;;33.67;20.45;;;;;;;;;;5017242;28;20026;-77
2022/03/17 10:40:41;;;;;;;34.22;21.23;;;;;;;;;;5017942;28;20108;-77
2022/03/17 10:43:38;;;;;;;36.40;21.35;;;;;;;;;;5017134;28;20048;-77
2022/03/17 10:46:15;;;;;;;33.80;20.67;;;;;;;;;;5001870;28;20586;-77
2022/03/17 10:48:57;;;;;;;35.47;20.05;;;;;;;;;;5017329;28;20025;-78
2022/03/17 10:51:43;;;;;;;36.83;19.17;;;;;;;;;;5000405;28;20072;-77
2022/03/17 10:54:20;;;;;;;36.03;19.73;;;;;;;;;;4999659;28;20029;-78
2022/03/17 10:56:57;;;;;;;34.75;20.15;;;;;;;;;;5017363;28;20357;-77
2022/03/17 10:59:22;;;;;;;30.17;16.92;;;;;;;;;;5017952;28;20022;-78
2022/03/17 11:01:47;;;;;;;34.20;20.67;;;;;;;;;;5017272;28;20360;-78
2022/03/17 11:04:13;;;;;;;34.33;20.57;;;;;;;;;;5016945;28;20034;-78
2022/03/17 11:06:39;;;;;;;31.25;18.27;;;;;;;;;;5017786;28;20341;-78
2022/03/17 11:09:07;;;;;;;34.75;19.75;;;;;;;;;;5016832;28;20026;-77
2022/03/17 11:11:32;;;;;;;38.10;19.65;;;;;;;;;;5016840;28;20054;-78
2022/03/17 11:13:59;;;;;;;30.40;18.42;;;;;;;;;;5017332;28;20022;-78
2022/03/17 11:16:40;;;;;;;28.60;18.65;;;;;;;;;;5017299;28;20029;-78
2022/03/17 11:19:09;;;;;;;36.67;20.02;;;;;;;;;;5016812;28;20029;-77
2022/03/17 11:21:35;;;;;;;31.15;19.60;;;;;;;;;;5017218;28;20080;-77
2022/03/17 11:24:07;;;;;;;30.38;18.63;;;;;;;;;;4998333;28;20029;-77
2022/03/17 11:26:34;;;;;;;34.85;19.45;;;;;;;;;;4998528;28;20034;-77
2022/03/17 11:29:05;;;;;;;32.58;18.80;;;;;;;;;;5015473;28;20033;-76
2022/03/17 11:31:57;;;;;;;32.25;18.73;;;;;;;;;;5015099;28;20065;-78
2022/03/17 11:34:37;;;;;;;29.85;17.92;;;;;;;;;;4998467;28;20026;-78
2022/03/17 11:37:21;;;;;;;31.30;14.23;;;;;;;;;;5016309;28;20044;-77
2022/03/17 11:39:48;;;;;;;;;;;;;;;;;;5002991;28;20389;-78
2022/03/17 11:42:34;;;;;;;29.13;16.27;;;;;;;;;;5015865;28;20290;-78
2022/03/17 11:45:02;;;;;;;25.20;14.52;;;;;;;;;;5015320;28;20014;-77
2022/03/17 11:47:27;;;;;;;30.67;16.95;;;;;;;;;;5015776;28;20113;-76
2022/03/17 11:49:53;;;;;;;26.42;16.67;;;;;;;;;;5015228;28;20053;-77
2022/03/17 11:52:18;;;;;;;25.15;16.27;;;;;;;;;;5014903;28;20029;-77
2022/03/17 11:54:43;;;;;;;26.35;16.52;;;;;;;;;;5014300;28;20364;-77
2022/03/17 11:57:08;;;;;;;25.70;14.77;;;;;;;;;;5015427;28;20113;-77
2022/03/17 11:59:52;;;;;;;25.77;15.85;;;;;;;;;;4997293;28;20025;-76
2022/03/17 12:02:19;;;;;;;27.42;15.13;;;;;;;;;;5013938;28;20040;-76
2022/03/17 12:04:49;;;;;;;24.85;15.23;;;;;;;;;;5014819;28;20026;-77
2022/03/17 12:07:16;;;;;;;26.08;16.00;;;;;;;;;;5015714;28;20030;-77
2022/03/17 12:09:42;;;;;;;26.33;15.13;;;;;;;;;;5015169;28;20021;-78
2022/03/17 12:12:23;;;;;;;28.35;15.77;;;;;;;;;;5007259;28;20610;-77
2022/03/17 12:14:50;;;;;;;22.75;14.20;;;;;;;;;;5019422;28;20030;-78
2022/03/17 12:17:17;;;;;;;22.55;14.05;;;;;;;;;;5015580;28;20052;-78
2022/03/17 12:19:49;;;;;;;20.65;13.38;;;;;;;;;;4997122;28;20036;-77
2022/03/17 12:22:16;;;;;;;25.35;14.90;;;;;;;;;;5014807;28;20403;-77
2022/03/17 12:24:46;;;;;;;23.60;13.48;;;;;;;;;;5015465;28;20018;-77
2022/03/17 12:27:20;;;;;;;23.45;14.40;;;;;;;;;;5014445;28;20022;-77
2022/03/17 12:29:47;;;;;;;25.20;14.90;;;;;;;;;;5015056;28;20121;-78
2022/03/17 12:32:15;;;;;;;24.85;14.30;;;;;;;;;;5014807;28;20042;-76
2022/03/17 12:34:44;;;;;;;24.67;14.55;;;;;;;;;;4996923;28;20026;-77
2022/03/17 12:37:10;;;;;;;25.40;14.00;;;;;;;;;;5014230;28;20072;-77
2022/03/17 12:39:35;;;;;;;24.58;13.48;;;;;;;;;;5014329;28;20033;-77
2022/03/17 12:42:12;;;;;;;26.75;13.77;;;;;;;;;;4996537;28;20065;-79
2022/03/17 12:44:46;;;;;;;21.50;12.52;;;;;;;;;;5016443;28;20422;-78
2022/03/17 12:47:12;;;;;;;21.42;12.02;;;;;;;;;;5017558;28;20025;-78
2022/03/17 12:49:37;;;;;;;24.73;12.10;;;;;;;;;;5013716;28;20033;-77
2022/03/17 12:52:18;;;;;;;24.17;12.60;;;;;;;;;;4995885;28;20092;-78
2022/03/17 12:54:45;;;;;;;21.67;12.88;;;;;;;;;;5014369;28;20275;-78
2022/03/17 12:57:10;;;;;;;19.45;12.30;;;;;;;;;;5013728;28;20029;-76
2022/03/17 12:59:35;;;;;;;22.35;12.10;;;;;;;;;;5014667;28;20032;-77
2022/03/17 13:02:00;;;;;;;22.77;12.68;;;;;;;;;;5014340;28;20472;-77
2022/03/17 13:04:29;;;;;;;23.33;12.38;;;;;;;;;;5014387;28;20026;-77
2022/03/17 13:06:57;;;;;;;21.92;12.55;;;;;;;;;;5018594;28;20484;-76
2022/03/17 13:09:32;;;;;;;17.98;11.50;;;;;;;;;;4997923;28;20022;-77
2022/03/17 13:14:52;;;;;;;16.58;10.82;;;;;;;;;;5014816;28;20032;-77
2022/03/17 13:17:30;;;;;;;23.55;11.57;;;;;;;;;;5013565;28;20033;-76
2022/03/17 13:19:56;;;;;;;21.48;11.75;;;;;;;;;;5013802;28;20030;-77
2022/03/17 13:22:29;;;;;;;26.52;12.70;;;;;;;;;;5013953;28;20036;-77
2022/03/17 13:25:01;;;;;;;25.80;12.40;;;;;;;;;;5014654;28;20071;-78
2022/03/17 13:27:27;;;;;;;22.58;13.57;;;;;;;;;;5016525;28;20030;-77
2022/03/17 13:29:53;;;;;;;24.27;14.27;;;;;;;;;;5015296;28;20037;-77
2022/03/17 13:32:21;;;;;;;22.23;13.02;;;;;;;;;;5016031;28;20113;-77
2022/03/17 13:34:56;;;;;;;23.17;14.40;;;;;;;;;;5013830;28;20026;-77
2022/03/17 13:37:32;;;;;;;25.15;13.55;;;;;;;;;;5015321;28;20053;-77
2022/03/17 13:40:02;;;;;;;20.50;13.98;;;;;;;;;;5014337;28;20029;-78
2022/03/17 13:42:27;;;;;;;23.25;13.43;;;;;;;;;;5014279;28;20026;-78
2022/03/17 13:44:55;;;;;;;21.45;13.55;;;;;;;;;;5014219;28;20369;-77
2022/03/17 13:47:25;;;;;;;23.42;13.35;;;;;;;;;;4996542;28;20037;-77
2022/03/17 13:50:09;;;;;;;27.77;14.00;;;;;;;;;;5013843;28;20089;-78
2022/03/17 13:52:35;;;;;;;24.70;14.75;;;;;;;;;;5013264;28;20040;-76
2022/03/17 13:55:01;;;;;;;23.45;14.40;;;;;;;;;;5013257;28;20037;-78
2022/03/17 13:57:26;;;;;;;24.80;13.68;;;;;;;;;;4995392;28;20025;-77
2022/03/17 13:59:51;;;;;;;21.98;13.50;;;;;;;;;;5013265;28;20069;-76
2022/03/17 14:02:21;;;;;;;22.97;13.17;;;;;;;;;;5013773;28;20037;-76
2022/03/17 14:04:54;;;;;;;24.83;13.80;;;;;;;;;;5017306;28;20281;-77
2022/03/17 14:07:20;;;;;;;23.05;12.75;;;;;;;;;;4999084;28;20121;-77
2022/03/17 14:09:45;;;;;;;21.20;12.48;;;;;;;;;;5016501;28;20072;-77
2022/03/17 14:12:11;;;;;;;20.52;12.60;;;;;;;;;;5016629;28;20076;-77
2022/03/17 14:14:36;;;;;;;25.95;13.40;;;;;;;;;;5016234;28;20101;-77
2022/03/17 14:17:01;;;;;;;25.33;14.98;;;;;;;;;;4998357;28;20044;-76
2022/03/17 14:19:27;;;;;;;21.35;13.60;;;;;;;;;;5016080;28;20080;-77
2022/03/17 14:24:38;;;;;;;24.35;13.60;;;;;;;;;;5016668;28;20048;-77
2022/03/17 14:27:03;;;;;;;26.65;14.55;;;;;;;;;;5016301;28;20057;-77
2022/03/17 14:29:28;;;;;;;23.45;14.00;;;;;;;;;;5016585;28;20064;-77
2022/03/17 14:31:54;;;;;;;22.27;14.97;;;;;;;;;;5016494;28;20072;-75
2022/03/17 14:34:22;;;;;;;24.50;14.88;;;;;;;;;;5017007;28;20283;-77
2022/03/17 14:36:47;;;;;;;23.05;14.48;;;;;;;;;;5016424;28;20495;-77
2022/03/17 14:39:14;;;;;;;25.23;14.75;;;;;;;;;;5016712;28;20026;-75